sensor_id;sensor_type;location;lat;lon;timestamp;P1;durP1;ratioP1;P2;durP2;ratioP2
6828;SDS011;17930;48.592;8.868;2024-03-02T00:02:26;17.13;;;8.23;;
6828;SDS011;17930;48.592;8.868;2024-03-02T00:04:52;16.60;;;8.45;;
6828;SDS011;17930;48.592;8.868;2024-03-02T00:07:20;12.43;;;7.90;;
6828;SDS011;17930;48.592;8.868;2024-03-02T00:09:47;17.13;;;8.10;;
6828;SDS011;17930;48.592;8.868;2024-03-02T00:12:15;16.58;;;7.47;;
6828;SDS011;17930;48.592;8.868;2024-03-02T00:14:41;12.27;;;7.22;;
6828;SDS011;17930;48.592;8.868;2024-03-02T00:17:08;16.25;;;8.15;;
6828;SDS011;17930;48.592;8.868;2024-03-02T00:19:50;14.05;;;7.97;;
6828;SDS011;17930;48.592;8.868;2024-03-02T00:22:18;13.18;;;7.00;;
6828;SDS011;17930;48.592;8.868;2024-03-02T00:24:46;14.82;;;7.93;;
6828;SDS011;17930;48.592;8.868;2024-03-02T00:27:13;15.73;;;8.20;;
6828;SDS011;17930;48.592;8.868;2024-03-02T00:29:41;13.20;;;7.82;;
6828;SDS011;17930;48.592;8.868;2024-03-02T00:32:09;12.63;;;7.07;;
6828;SDS011;17930;48.592;8.868;2024-03-02T00:34:40;11.95;;;7.25;;
6828;SDS011;17930;48.592;8.868;2024-03-02T00:37:06;16.35;;;8.45;;
6828;SDS011;17930;48.592;8.868;2024-03-02T00:39:33;14.98;;;7.70;;
6828;SDS011;17930;48.592;8.868;2024-03-02T00:42:02;20.40;;;9.77;;
6828;SDS011;17930;48.592;8.868;2024-03-02T00:44:29;16.65;;;8.60;;
6828;SDS011;17930;48.592;8.868;2024-03-02T00:47:01;14.23;;;7.45;;
6828;SDS011;17930;48.592;8.868;2024-03-02T00:49:28;12.48;;;7.03;;
6828;SDS011;17930;48.592;8.868;2024-03-02T00:51:55;17.08;;;6.80;;
6828;SDS011;17930;48.592;8.868;2024-03-02T00:54:23;14.52;;;7.18;;
6828;SDS011;17930;48.592;8.868;2024-03-02T00:56:51;11.40;;;6.78;;
6828;SDS011;17930;48.592;8.868;2024-03-02T00:59:21;12.02;;;6.47;;
6828;SDS011;17930;48.592;8.868;2024-03-02T01:01:48;12.13;;;6.65;;
6828;SDS011;17930;48.592;8.868;2024-03-02T01:04:15;10.50;;;6.65;;
6828;SDS011;17930;48.592;8.868;2024-03-02T01:06:42;13.30;;;7.18;;
6828;SDS011;17930;48.592;8.868;2024-03-02T01:09:09;10.15;;;6.38;;
6828;SDS011;17930;48.592;8.868;2024-03-02T01:11:37;11.38;;;6.65;;
6828;SDS011;17930;48.592;8.868;2024-03-02T01:14:04;12.63;;;7.18;;
6828;SDS011;17930;48.592;8.868;2024-03-02T01:16:32;11.77;;;7.03;;
6828;SDS011;17930;48.592;8.868;2024-03-02T01:18:59;11.90;;;7.55;;
6828;SDS011;17930;48.592;8.868;2024-03-02T01:21:25;14.15;;;7.75;;
6828;SDS011;17930;48.592;8.868;2024-03-02T01:23:52;12.30;;;7.47;;
6828;SDS011;17930;48.592;8.868;2024-03-02T01:26:19;13.05;;;7.80;;
6828;SDS011;17930;48.592;8.868;2024-03-02T01:28:45;19.75;;;9.25;;
6828;SDS011;17930;48.592;8.868;2024-03-02T01:31:12;12.90;;;7.03;;
6828;SDS011;17930;48.592;8.868;2024-03-02T01:33:40;15.32;;;8.00;;
6828;SDS011;17930;48.592;8.868;2024-03-02T01:36:06;12.75;;;7.40;;
6828;SDS011;17930;48.592;8.868;2024-03-02T01:38:34;12.38;;;7.43;;
6828;SDS011;17930;48.592;8.868;2024-03-02T01:41:00;13.27;;;7.15;;
6828;SDS011;17930;48.592;8.868;2024-03-02T01:43:27;13.27;;;6.90;;
6828;SDS011;17930;48.592;8.868;2024-03-02T01:45:54;13.30;;;7.28;;
6828;SDS011;17930;48.592;8.868;2024-03-02T01:48:21;14.80;;;7.45;;
6828;SDS011;17930;48.592;8.868;2024-03-02T01:50:49;12.85;;;7.25;;
6828;SDS011;17930;48.592;8.868;2024-03-02T01:53:16;13.57;;;7.28;;
6828;SDS011;17930;48.592;8.868;2024-03-02T01:55:44;12.02;;;7.28;;
6828;SDS011;17930;48.592;8.868;2024-03-02T01:58:10;13.82;;;7.50;;
6828;SDS011;17930;48.592;8.868;2024-03-02T02:00:37;11.35;;;7.25;;
6828;SDS011;17930;48.592;8.868;2024-03-02T02:03:04;13.20;;;7.40;;
6828;SDS011;17930;48.592;8.868;2024-03-02T02:05:31;11.75;;;6.55;;
6828;SDS011;17930;48.592;8.868;2024-03-02T02:08:00;15.82;;;7.95;;
6828;SDS011;17930;48.592;8.868;2024-03-02T02:10:27;14.90;;;8.32;;
6828;SDS011;17930;48.592;8.868;2024-03-02T02:12:53;15.20;;;7.70;;
6828;SDS011;17930;48.592;8.868;2024-03-02T02:15:24;15.48;;;8.35;;
6828;SDS011;17930;48.592;8.868;2024-03-02T02:17:51;14.05;;;7.95;;
6828;SDS011;17930;48.592;8.868;2024-03-02T02:20:18;17.55;;;9.02;;
6828;SDS011;17930;48.592;8.868;2024-03-02T02:22:56;17.13;;;9.77;;
6828;SDS011;17930;48.592;8.868;2024-03-02T02:25:23;14.05;;;8.32;;
6828;SDS011;17930;48.592;8.868;2024-03-02T02:27:50;14.30;;;8.57;;
6828;SDS011;17930;48.592;8.868;2024-03-02T02:30:20;16.05;;;7.82;;
6828;SDS011;17930;48.592;8.868;2024-03-02T02:32:47;15.25;;;8.40;;
6828;SDS011;17930;48.592;8.868;2024-03-02T02:35:14;13.75;;;7.57;;
6828;SDS011;17930;48.592;8.868;2024-03-02T02:37:41;16.50;;;8.80;;
6828;SDS011;17930;48.592;8.868;2024-03-02T02:40:10;14.50;;;8.35;;
6828;SDS011;17930;48.592;8.868;2024-03-02T02:42:37;14.00;;;8.48;;
6828;SDS011;17930;48.592;8.868;2024-03-02T02:45:04;14.85;;;8.50;;
6828;SDS011;17930;48.592;8.868;2024-03-02T02:47:30;14.38;;;7.90;;
6828;SDS011;17930;48.592;8.868;2024-03-02T02:50:00;16.77;;;7.72;;
6828;SDS011;17930;48.592;8.868;2024-03-02T02:52:30;15.98;;;8.63;;
6828;SDS011;17930;48.592;8.868;2024-03-02T02:54:59;14.40;;;7.60;;
6828;SDS011;17930;48.592;8.868;2024-03-02T02:57:27;17.45;;;8.13;;
6828;SDS011;17930;48.592;8.868;2024-03-02T02:59:56;17.33;;;7.88;;
6828;SDS011;17930;48.592;8.868;2024-03-02T03:02:22;14.10;;;8.07;;
6828;SDS011;17930;48.592;8.868;2024-03-02T03:04:49;13.43;;;7.40;;
6828;SDS011;17930;48.592;8.868;2024-03-02T03:07:16;20.85;;;8.38;;
6828;SDS011;17930;48.592;8.868;2024-03-02T03:09:42;13.43;;;8.07;;
6828;SDS011;17930;48.592;8.868;2024-03-02T03:12:09;13.30;;;8.15;;
6828;SDS011;17930;48.592;8.868;2024-03-02T03:14:37;13.60;;;7.80;;
6828;SDS011;17930;48.592;8.868;2024-03-02T03:17:03;12.68;;;7.72;;
6828;SDS011;17930;48.592;8.868;2024-03-02T03:19:32;14.93;;;8.23;;
6828;SDS011;17930;48.592;8.868;2024-03-02T03:21:58;11.93;;;6.68;;
6828;SDS011;17930;48.592;8.868;2024-03-02T03:24:25;10.77;;;7.00;;
6828;SDS011;17930;48.592;8.868;2024-03-02T03:26:52;16.25;;;8.23;;
6828;SDS011;17930;48.592;8.868;2024-03-02T03:29:18;12.70;;;7.45;;
6828;SDS011;17930;48.592;8.868;2024-03-02T03:31:46;13.23;;;7.35;;
6828;SDS011;17930;48.592;8.868;2024-03-02T03:34:13;11.82;;;6.60;;
6828;SDS011;17930;48.592;8.868;2024-03-02T03:36:41;14.25;;;7.00;;
6828;SDS011;17930;48.592;8.868;2024-03-02T03:39:08;12.63;;;7.15;;
6828;SDS011;17930;48.592;8.868;2024-03-02T03:41:35;13.65;;;7.50;;
6828;SDS011;17930;48.592;8.868;2024-03-02T03:44:02;14.73;;;7.68;;
6828;SDS011;17930;48.592;8.868;2024-03-02T03:46:29;13.13;;;6.78;;
6828;SDS011;17930;48.592;8.868;2024-03-02T03:48:57;18.08;;;8.45;;
6828;SDS011;17930;48.592;8.868;2024-03-02T03:51:24;13.93;;;7.35;;
6828;SDS011;17930;48.592;8.868;2024-03-02T03:53:50;16.77;;;7.93;;
6828;SDS011;17930;48.592;8.868;2024-03-02T03:56:17;13.88;;;7.38;;
6828;SDS011;17930;48.592;8.868;2024-03-02T03:58:43;12.32;;;7.70;;
6828;SDS011;17930;48.592;8.868;2024-03-02T04:01:10;11.43;;;7.25;;
6828;SDS011;17930;48.592;8.868;2024-03-02T04:03:37;16.27;;;8.15;;
6828;SDS011;17930;48.592;8.868;2024-03-02T04:06:05;12.27;;;7.00;;
6828;SDS011;17930;48.592;8.868;2024-03-02T04:08:32;11.75;;;7.32;;
6828;SDS011;17930;48.592;8.868;2024-03-02T04:10:59;18.50;;;8.23;;
6828;SDS011;17930;48.592;8.868;2024-03-02T04:13:25;14.48;;;7.78;;
6828;SDS011;17930;48.592;8.868;2024-03-02T04:15:52;14.20;;;8.27;;
6828;SDS011;17930;48.592;8.868;2024-03-02T04:18:19;21.27;;;8.00;;
6828;SDS011;17930;48.592;8.868;2024-03-02T04:20:45;15.32;;;8.32;;
6828;SDS011;17930;48.592;8.868;2024-03-02T04:23:13;15.15;;;7.65;;
6828;SDS011;17930;48.592;8.868;2024-03-02T04:25:40;15.85;;;8.48;;
6828;SDS011;17930;48.592;8.868;2024-03-02T04:28:07;16.33;;;8.35;;
6828;SDS011;17930;48.592;8.868;2024-03-02T04:30:33;17.25;;;8.18;;
6828;SDS011;17930;48.592;8.868;2024-03-02T04:33:00;16.55;;;8.10;;
6828;SDS011;17930;48.592;8.868;2024-03-02T04:35:27;14.20;;;7.90;;
6828;SDS011;17930;48.592;8.868;2024-03-02T04:37:54;14.73;;;8.55;;
6828;SDS011;17930;48.592;8.868;2024-03-02T04:40:22;14.32;;;8.00;;
6828;SDS011;17930;48.592;8.868;2024-03-02T04:42:48;16.33;;;8.25;;
6828;SDS011;17930;48.592;8.868;2024-03-02T04:45:15;13.77;;;8.07;;
6828;SDS011;17930;48.592;8.868;2024-03-02T04:47:42;14.25;;;8.25;;
6828;SDS011;17930;48.592;8.868;2024-03-02T04:50:08;14.55;;;8.60;;
6828;SDS011;17930;48.592;8.868;2024-03-02T04:52:35;13.40;;;7.93;;
6828;SDS011;17930;48.592;8.868;2024-03-02T04:55:02;19.15;;;9.25;;
6828;SDS011;17930;48.592;8.868;2024-03-02T04:57:46;19.23;;;9.90;;
6828;SDS011;17930;48.592;8.868;2024-03-02T05:00:13;19.15;;;9.98;;
6828;SDS011;17930;48.592;8.868;2024-03-02T05:02:40;15.90;;;9.05;;
6828;SDS011;17930;48.592;8.868;2024-03-02T05:05:07;17.85;;;8.85;;
6828;SDS011;17930;48.592;8.868;2024-03-02T05:07:33;17.80;;;8.43;;
6828;SDS011;17930;48.592;8.868;2024-03-02T05:10:00;19.67;;;8.93;;
6828;SDS011;17930;48.592;8.868;2024-03-02T05:12:26;16.98;;;9.00;;
6828;SDS011;17930;48.592;8.868;2024-03-02T05:15:22;15.98;;;8.68;;
6828;SDS011;17930;48.592;8.868;2024-03-02T05:17:48;16.73;;;8.60;;
6828;SDS011;17930;48.592;8.868;2024-03-02T05:20:15;15.43;;;8.23;;
6828;SDS011;17930;48.592;8.868;2024-03-02T05:22:42;19.38;;;8.90;;
6828;SDS011;17930;48.592;8.868;2024-03-02T05:25:09;17.52;;;9.15;;
6828;SDS011;17930;48.592;8.868;2024-03-02T05:27:35;14.27;;;8.30;;
6828;SDS011;17930;48.592;8.868;2024-03-02T05:30:02;16.75;;;8.93;;
6828;SDS011;17930;48.592;8.868;2024-03-02T05:32:32;15.45;;;8.30;;
6828;SDS011;17930;48.592;8.868;2024-03-02T05:34:59;16.17;;;9.18;;
6828;SDS011;17930;48.592;8.868;2024-03-02T05:37:26;13.55;;;8.15;;
6828;SDS011;17930;48.592;8.868;2024-03-02T05:39:53;16.95;;;8.80;;
6828;SDS011;17930;48.592;8.868;2024-03-02T05:42:20;19.40;;;10.32;;
6828;SDS011;17930;48.592;8.868;2024-03-02T05:44:47;19.80;;;9.85;;
6828;SDS011;17930;48.592;8.868;2024-03-02T05:47:13;17.67;;;9.43;;
6828;SDS011;17930;48.592;8.868;2024-03-02T05:49:41;17.20;;;8.98;;
6828;SDS011;17930;48.592;8.868;2024-03-02T05:52:08;17.83;;;9.05;;
6828;SDS011;17930;48.592;8.868;2024-03-02T05:54:35;19.80;;;9.93;;
6828;SDS011;17930;48.592;8.868;2024-03-02T05:57:02;20.92;;;10.38;;
6828;SDS011;17930;48.592;8.868;2024-03-02T05:59:46;23.13;;;10.88;;
6828;SDS011;17930;48.592;8.868;2024-03-02T06:02:13;17.58;;;10.45;;
6828;SDS011;17930;48.592;8.868;2024-03-02T06:04:39;21.67;;;10.98;;
6828;SDS011;17930;48.592;8.868;2024-03-02T06:07:07;24.70;;;10.63;;
6828;SDS011;17930;48.592;8.868;2024-03-02T06:09:34;24.08;;;10.80;;
6828;SDS011;17930;48.592;8.868;2024-03-02T06:12:01;25.13;;;11.38;;
6828;SDS011;17930;48.592;8.868;2024-03-02T06:14:28;22.63;;;11.15;;
6828;SDS011;17930;48.592;8.868;2024-03-02T06:16:55;20.48;;;10.73;;
6828;SDS011;17930;48.592;8.868;2024-03-02T06:19:22;25.67;;;11.05;;
6828;SDS011;17930;48.592;8.868;2024-03-02T06:21:49;23.35;;;10.85;;
6828;SDS011;17930;48.592;8.868;2024-03-02T06:24:16;23.58;;;10.45;;
6828;SDS011;17930;48.592;8.868;2024-03-02T06:26:43;23.85;;;11.55;;
6828;SDS011;17930;48.592;8.868;2024-03-02T06:29:10;23.10;;;11.13;;
6828;SDS011;17930;48.592;8.868;2024-03-02T06:31:37;24.08;;;11.27;;
6828;SDS011;17930;48.592;8.868;2024-03-02T06:34:03;25.00;;;11.63;;
6828;SDS011;17930;48.592;8.868;2024-03-02T06:36:30;24.45;;;11.23;;
6828;SDS011;17930;48.592;8.868;2024-03-02T06:38:57;23.90;;;11.07;;
6828;SDS011;17930;48.592;8.868;2024-03-02T06:41:24;21.15;;;11.52;;
6828;SDS011;17930;48.592;8.868;2024-03-02T06:43:52;21.63;;;10.07;;
6828;SDS011;17930;48.592;8.868;2024-03-02T06:46:24;23.05;;;10.80;;
6828;SDS011;17930;48.592;8.868;2024-03-02T06:48:51;27.20;;;11.80;;
6828;SDS011;17930;48.592;8.868;2024-03-02T06:51:18;21.73;;;10.80;;
6828;SDS011;17930;48.592;8.868;2024-03-02T06:53:44;35.42;;;16.90;;
6828;SDS011;17930;48.592;8.868;2024-03-02T06:56:11;34.20;;;15.30;;
6828;SDS011;17930;48.592;8.868;2024-03-02T06:58:40;27.10;;;15.50;;
6828;SDS011;17930;48.592;8.868;2024-03-02T07:01:08;29.88;;;14.25;;
6828;SDS011;17930;48.592;8.868;2024-03-02T07:03:35;28.67;;;14.90;;
6828;SDS011;17930;48.592;8.868;2024-03-02T07:06:02;32.80;;;14.30;;
6828;SDS011;17930;48.592;8.868;2024-03-02T07:08:29;25.80;;;12.85;;
6828;SDS011;17930;48.592;8.868;2024-03-02T07:10:56;23.73;;;13.27;;
6828;SDS011;17930;48.592;8.868;2024-03-02T07:13:23;24.48;;;12.88;;
6828;SDS011;17930;48.592;8.868;2024-03-02T07:15:51;31.35;;;13.45;;
6828;SDS011;17930;48.592;8.868;2024-03-02T07:18:46;22.48;;;10.95;;
6828;SDS011;17930;48.592;8.868;2024-03-02T07:21:17;22.73;;;11.70;;
6828;SDS011;17930;48.592;8.868;2024-03-02T07:23:43;36.42;;;12.98;;
6828;SDS011;17930;48.592;8.868;2024-03-02T07:26:10;30.35;;;13.48;;
6828;SDS011;17930;48.592;8.868;2024-03-02T07:28:37;26.38;;;12.95;;
6828;SDS011;17930;48.592;8.868;2024-03-02T07:31:05;30.35;;;12.90;;
6828;SDS011;17930;48.592;8.868;2024-03-02T07:33:32;34.25;;;12.63;;
6828;SDS011;17930;48.592;8.868;2024-03-02T07:36:00;25.95;;;12.52;;
6828;SDS011;17930;48.592;8.868;2024-03-02T07:38:27;38.85;;;20.15;;
6828;SDS011;17930;48.592;8.868;2024-03-02T07:40:54;33.15;;;17.33;;
6828;SDS011;17930;48.592;8.868;2024-03-02T07:43:22;32.28;;;16.33;;
6828;SDS011;17930;48.592;8.868;2024-03-02T07:45:48;31.27;;;17.00;;
6828;SDS011;17930;48.592;8.868;2024-03-02T07:48:16;30.30;;;15.55;;
6828;SDS011;17930;48.592;8.868;2024-03-02T07:50:43;27.98;;;15.02;;
6828;SDS011;17930;48.592;8.868;2024-03-02T07:53:10;26.40;;;14.47;;
6828;SDS011;17930;48.592;8.868;2024-03-02T07:55:36;24.67;;;13.60;;
6828;SDS011;17930;48.592;8.868;2024-03-02T07:58:03;26.27;;;14.67;;
6828;SDS011;17930;48.592;8.868;2024-03-02T08:00:30;25.90;;;14.20;;
6828;SDS011;17930;48.592;8.868;2024-03-02T08:02:57;23.97;;;13.40;;
6828;SDS011;17930;48.592;8.868;2024-03-02T08:05:25;21.27;;;12.83;;
6828;SDS011;17930;48.592;8.868;2024-03-02T08:07:52;20.03;;;11.87;;
6828;SDS011;17930;48.592;8.868;2024-03-02T08:10:19;19.07;;;11.27;;
6828;SDS011;17930;48.592;8.868;2024-03-02T08:12:46;16.50;;;10.10;;
6828;SDS011;17930;48.592;8.868;2024-03-02T08:15:12;13.27;;;9.23;;
6828;SDS011;17930;48.592;8.868;2024-03-02T08:17:39;12.70;;;7.90;;
6828;SDS011;17930;48.592;8.868;2024-03-02T08:20:10;13.33;;;8.10;;
6828;SDS011;17930;48.592;8.868;2024-03-02T08:22:39;12.33;;;8.70;;
6828;SDS011;17930;48.592;8.868;2024-03-02T08:25:06;11.47;;;8.03;;
6828;SDS011;17930;48.592;8.868;2024-03-02T08:27:34;14.60;;;8.73;;
6828;SDS011;17930;48.592;8.868;2024-03-02T08:30:01;11.40;;;7.60;;
6828;SDS011;17930;48.592;8.868;2024-03-02T08:32:31;11.97;;;8.07;;
6828;SDS011;17930;48.592;8.868;2024-03-02T08:34:58;12.20;;;7.87;;
6828;SDS011;17930;48.592;8.868;2024-03-02T08:37:25;12.53;;;8.23;;
6828;SDS011;17930;48.592;8.868;2024-03-02T08:39:53;12.27;;;7.73;;
6828;SDS011;17930;48.592;8.868;2024-03-02T08:42:20;10.57;;;8.00;;
6828;SDS011;17930;48.592;8.868;2024-03-02T08:44:47;11.90;;;8.07;;
6828;SDS011;17930;48.592;8.868;2024-03-02T08:47:14;18.47;;;11.20;;
6828;SDS011;17930;48.592;8.868;2024-03-02T08:49:41;14.93;;;9.20;;
6828;SDS011;17930;48.592;8.868;2024-03-02T08:52:08;14.27;;;9.67;;
6828;SDS011;17930;48.592;8.868;2024-03-02T08:54:35;12.07;;;8.30;;
6828;SDS011;17930;48.592;8.868;2024-03-02T08:57:04;13.63;;;9.00;;
6828;SDS011;17930;48.592;8.868;2024-03-02T08:59:32;12.20;;;8.27;;
6828;SDS011;17930;48.592;8.868;2024-03-02T09:01:59;11.73;;;8.43;;
6828;SDS011;17930;48.592;8.868;2024-03-02T09:04:26;10.37;;;7.90;;
6828;SDS011;17930;48.592;8.868;2024-03-02T09:06:53;9.90;;;6.87;;
6828;SDS011;17930;48.592;8.868;2024-03-02T09:09:20;11.43;;;8.20;;
6828;SDS011;17930;48.592;8.868;2024-03-02T09:11:47;11.43;;;7.10;;
6828;SDS011;17930;48.592;8.868;2024-03-02T09:14:15;11.77;;;7.20;;
6828;SDS011;17930;48.592;8.868;2024-03-02T09:16:42;11.40;;;7.70;;
6828;SDS011;17930;48.592;8.868;2024-03-02T09:19:09;11.03;;;6.90;;
6828;SDS011;17930;48.592;8.868;2024-03-02T09:21:36;11.43;;;7.13;;
6828;SDS011;17930;48.592;8.868;2024-03-02T09:24:03;11.80;;;8.10;;
6828;SDS011;17930;48.592;8.868;2024-03-02T09:26:31;10.33;;;6.97;;
6828;SDS011;17930;48.592;8.868;2024-03-02T09:28:58;9.37;;;6.33;;
6828;SDS011;17930;48.592;8.868;2024-03-02T09:31:26;10.07;;;6.90;;
6828;SDS011;17930;48.592;8.868;2024-03-02T09:33:53;9.53;;;6.77;;
6828;SDS011;17930;48.592;8.868;2024-03-02T09:36:19;8.80;;;6.23;;
6828;SDS011;17930;48.592;8.868;2024-03-02T09:38:47;7.60;;;5.90;;
6828;SDS011;17930;48.592;8.868;2024-03-02T09:41:14;7.73;;;6.13;;
6828;SDS011;17930;48.592;8.868;2024-03-02T09:43:41;9.03;;;5.97;;
6828;SDS011;17930;48.592;8.868;2024-03-02T09:46:07;7.90;;;5.73;;
6828;SDS011;17930;48.592;8.868;2024-03-02T09:48:36;7.90;;;5.63;;
6828;SDS011;17930;48.592;8.868;2024-03-02T09:51:04;8.00;;;5.67;;
6828;SDS011;17930;48.592;8.868;2024-03-02T09:53:32;8.33;;;6.23;;
6828;SDS011;17930;48.592;8.868;2024-03-02T09:55:59;9.13;;;6.20;;
6828;SDS011;17930;48.592;8.868;2024-03-02T09:58:26;8.87;;;6.17;;
6828;SDS011;17930;48.592;8.868;2024-03-02T10:00:53;6.40;;;5.30;;
6828;SDS011;17930;48.592;8.868;2024-03-02T10:03:20;10.27;;;6.00;;
6828;SDS011;17930;48.592;8.868;2024-03-02T10:05:50;8.93;;;6.00;;
6828;SDS011;17930;48.592;8.868;2024-03-02T10:08:18;6.57;;;4.93;;
6828;SDS011;17930;48.592;8.868;2024-03-02T10:10:44;6.73;;;5.30;;
6828;SDS011;17930;48.592;8.868;2024-03-02T10:13:11;7.47;;;5.33;;
6828;SDS011;17930;48.592;8.868;2024-03-02T10:15:39;6.57;;;5.17;;
6828;SDS011;17930;48.592;8.868;2024-03-02T10:18:08;5.20;;;4.47;;
6828;SDS011;17930;48.592;8.868;2024-03-02T10:20:37;5.43;;;4.87;;
6828;SDS011;17930;48.592;8.868;2024-03-02T10:23:11;5.93;;;4.53;;
6828;SDS011;17930;48.592;8.868;2024-03-02T10:25:39;6.03;;;4.93;;
6828;SDS011;17930;48.592;8.868;2024-03-02T10:28:06;5.70;;;4.33;;
6828;SDS011;17930;48.592;8.868;2024-03-02T10:30:33;5.27;;;4.53;;
6828;SDS011;17930;48.592;8.868;2024-03-02T10:33:00;5.33;;;4.40;;
6828;SDS011;17930;48.592;8.868;2024-03-02T10:35:27;5.37;;;4.33;;
6828;SDS011;17930;48.592;8.868;2024-03-02T10:37:56;5.77;;;4.23;;
6828;SDS011;17930;48.592;8.868;2024-03-02T10:40:26;4.73;;;3.73;;
6828;SDS011;17930;48.592;8.868;2024-03-02T10:42:53;9.00;;;4.10;;
6828;SDS011;17930;48.592;8.868;2024-03-02T10:45:21;4.77;;;3.43;;
6828;SDS011;17930;48.592;8.868;2024-03-02T10:47:48;3.97;;;3.40;;
6828;SDS011;17930;48.592;8.868;2024-03-02T10:50:16;4.03;;;3.60;;
6828;SDS011;17930;48.592;8.868;2024-03-02T10:52:43;3.70;;;3.27;;
6828;SDS011;17930;48.592;8.868;2024-03-02T10:55:11;5.73;;;3.40;;
6828;SDS011;17930;48.592;8.868;2024-03-02T10:57:42;4.30;;;3.23;;
6828;SDS011;17930;48.592;8.868;2024-03-02T11:00:14;4.13;;;3.17;;
6828;SDS011;17930;48.592;8.868;2024-03-02T11:02:42;6.57;;;4.27;;
6828;SDS011;17930;48.592;8.868;2024-03-02T11:05:19;4.00;;;3.60;;
6828;SDS011;17930;48.592;8.868;2024-03-02T11:07:52;5.30;;;4.17;;
6828;SDS011;17930;48.592;8.868;2024-03-02T11:10:22;4.00;;;3.43;;
6828;SDS011;17930;48.592;8.868;2024-03-02T11:12:53;3.97;;;3.13;;
6828;SDS011;17930;48.592;8.868;2024-03-02T11:15:30;3.53;;;2.87;;
6828;SDS011;17930;48.592;8.868;2024-03-02T11:17:57;4.80;;;3.10;;
6828;SDS011;17930;48.592;8.868;2024-03-02T11:20:24;3.00;;;2.70;;
6828;SDS011;17930;48.592;8.868;2024-03-02T11:22:54;4.17;;;3.13;;
6828;SDS011;17930;48.592;8.868;2024-03-02T11:25:24;4.57;;;3.40;;
6828;SDS011;17930;48.592;8.868;2024-03-02T11:28:02;2.90;;;2.60;;
6828;SDS011;17930;48.592;8.868;2024-03-02T11:30:49;3.07;;;2.70;;
6828;SDS011;17930;48.592;8.868;2024-03-02T11:33:22;3.67;;;3.10;;
6828;SDS011;17930;48.592;8.868;2024-03-02T11:35:56;2.63;;;2.17;;
6828;SDS011;17930;48.592;8.868;2024-03-02T11:38:29;3.83;;;2.90;;
6828;SDS011;17930;48.592;8.868;2024-03-02T11:40:59;3.00;;;2.50;;
6828;SDS011;17930;48.592;8.868;2024-03-02T11:43:28;4.30;;;2.93;;
6828;SDS011;17930;48.592;8.868;2024-03-02T11:45:58;2.50;;;2.27;;
6828;SDS011;17930;48.592;8.868;2024-03-02T11:48:26;2.33;;;2.10;;
6828;SDS011;17930;48.592;8.868;2024-03-02T11:50:53;2.17;;;1.73;;
6828;SDS011;17930;48.592;8.868;2024-03-02T11:53:20;2.67;;;1.87;;
6828;SDS011;17930;48.592;8.868;2024-03-02T11:55:47;2.37;;;2.17;;
6828;SDS011;17930;48.592;8.868;2024-03-02T11:58:15;3.77;;;2.10;;
6828;SDS011;17930;48.592;8.868;2024-03-02T12:00:44;3.60;;;2.07;;
6828;SDS011;17930;48.592;8.868;2024-03-02T12:03:12;3.40;;;1.90;;
6828;SDS011;17930;48.592;8.868;2024-03-02T12:05:39;2.43;;;2.00;;
6828;SDS011;17930;48.592;8.868;2024-03-02T12:08:07;2.20;;;1.80;;
6828;SDS011;17930;48.592;8.868;2024-03-02T12:10:35;2.10;;;1.67;;
6828;SDS011;17930;48.592;8.868;2024-03-02T12:13:03;2.00;;;1.57;;
6828;SDS011;17930;48.592;8.868;2024-03-02T12:15:32;2.30;;;1.57;;
6828;SDS011;17930;48.592;8.868;2024-03-02T12:18:04;1.53;;;1.43;;
6828;SDS011;17930;48.592;8.868;2024-03-02T12:20:32;1.47;;;1.37;;
6828;SDS011;17930;48.592;8.868;2024-03-02T12:23:00;1.07;;;0.97;;
6828;SDS011;17930;48.592;8.868;2024-03-02T12:25:28;1.13;;;1.03;;
6828;SDS011;17930;48.592;8.868;2024-03-02T12:27:56;1.47;;;1.23;;
6828;SDS011;17930;48.592;8.868;2024-03-02T12:30:24;1.20;;;1.10;;
6828;SDS011;17930;48.592;8.868;2024-03-02T12:32:52;1.33;;;1.23;;
6828;SDS011;17930;48.592;8.868;2024-03-02T12:35:21;1.10;;;1.00;;
6828;SDS011;17930;48.592;8.868;2024-03-02T12:37:48;1.27;;;1.17;;
6828;SDS011;17930;48.592;8.868;2024-03-02T12:40:17;3.30;;;1.63;;
6828;SDS011;17930;48.592;8.868;2024-03-02T12:42:45;2.00;;;1.37;;
6828;SDS011;17930;48.592;8.868;2024-03-02T12:45:12;1.90;;;1.50;;
6828;SDS011;17930;48.592;8.868;2024-03-02T12:47:40;2.53;;;1.40;;
6828;SDS011;17930;48.592;8.868;2024-03-02T12:50:07;1.80;;;1.40;;
6828;SDS011;17930;48.592;8.868;2024-03-02T12:52:37;2.17;;;1.30;;
6828;SDS011;17930;48.592;8.868;2024-03-02T12:55:04;1.97;;;1.47;;
6828;SDS011;17930;48.592;8.868;2024-03-02T12:57:32;3.37;;;1.73;;
6828;SDS011;17930;48.592;8.868;2024-03-02T13:00:00;2.50;;;1.47;;
6828;SDS011;17930;48.592;8.868;2024-03-02T13:02:28;3.47;;;1.73;;
6828;SDS011;17930;48.592;8.868;2024-03-02T13:04:55;2.23;;;1.30;;
6828;SDS011;17930;48.592;8.868;2024-03-02T13:07:24;1.43;;;1.33;;
6828;SDS011;17930;48.592;8.868;2024-03-02T13:09:53;1.57;;;1.40;;
6828;SDS011;17930;48.592;8.868;2024-03-02T13:12:21;1.90;;;1.47;;
6828;SDS011;17930;48.592;8.868;2024-03-02T13:14:48;2.47;;;1.50;;
6828;SDS011;17930;48.592;8.868;2024-03-02T13:17:17;1.60;;;1.30;;
6828;SDS011;17930;48.592;8.868;2024-03-02T13:19:50;1.80;;;1.43;;
6828;SDS011;17930;48.592;8.868;2024-03-02T13:22:18;1.73;;;1.33;;
6828;SDS011;17930;48.592;8.868;2024-03-02T13:24:45;3.40;;;1.70;;
6828;SDS011;17930;48.592;8.868;2024-03-02T13:27:13;2.60;;;1.57;;
6828;SDS011;17930;48.592;8.868;2024-03-02T13:29:39;1.30;;;1.20;;
6828;SDS011;17930;48.592;8.868;2024-03-02T13:32:08;1.70;;;1.30;;
6828;SDS011;17930;48.592;8.868;2024-03-02T13:34:35;3.40;;;1.33;;
6828;SDS011;17930;48.592;8.868;2024-03-02T13:37:02;1.77;;;1.57;;
6828;SDS011;17930;48.592;8.868;2024-03-02T13:39:30;1.77;;;1.27;;
6828;SDS011;17930;48.592;8.868;2024-03-02T13:42:05;2.00;;;1.47;;
6828;SDS011;17930;48.592;8.868;2024-03-02T13:44:34;2.03;;;1.50;;
6828;SDS011;17930;48.592;8.868;2024-03-02T13:47:02;3.20;;;1.70;;
6828;SDS011;17930;48.592;8.868;2024-03-02T13:49:29;1.87;;;1.10;;
6828;SDS011;17930;48.592;8.868;2024-03-02T13:52:01;1.87;;;1.63;;
6828;SDS011;17930;48.592;8.868;2024-03-02T13:54:38;2.27;;;1.40;;
6828;SDS011;17930;48.592;8.868;2024-03-02T13:57:05;1.40;;;1.30;;
6828;SDS011;17930;48.592;8.868;2024-03-02T13:59:32;1.20;;;1.10;;
6828;SDS011;17930;48.592;8.868;2024-03-02T14:02:01;2.23;;;1.50;;
6828;SDS011;17930;48.592;8.868;2024-03-02T14:04:29;1.23;;;1.13;;
6828;SDS011;17930;48.592;8.868;2024-03-02T14:06:56;1.53;;;1.17;;
6828;SDS011;17930;48.592;8.868;2024-03-02T14:09:23;2.23;;;1.70;;
6828;SDS011;17930;48.592;8.868;2024-03-02T14:11:50;2.43;;;1.27;;
6828;SDS011;17930;48.592;8.868;2024-03-02T14:14:17;1.30;;;1.20;;
6828;SDS011;17930;48.592;8.868;2024-03-02T14:16:44;1.47;;;1.30;;
6828;SDS011;17930;48.592;8.868;2024-03-02T14:19:12;1.37;;;1.20;;
6828;SDS011;17930;48.592;8.868;2024-03-02T14:21:39;2.17;;;1.30;;
6828;SDS011;17930;48.592;8.868;2024-03-02T14:24:07;1.90;;;1.60;;
6828;SDS011;17930;48.592;8.868;2024-03-02T14:26:34;2.03;;;1.40;;
6828;SDS011;17930;48.592;8.868;2024-03-02T14:29:01;1.40;;;1.20;;
6828;SDS011;17930;48.592;8.868;2024-03-02T14:31:28;1.63;;;1.27;;
6828;SDS011;17930;48.592;8.868;2024-03-02T14:33:56;1.67;;;1.27;;
6828;SDS011;17930;48.592;8.868;2024-03-02T14:36:24;2.50;;;1.30;;
6828;SDS011;17930;48.592;8.868;2024-03-02T14:38:52;1.63;;;1.30;;
6828;SDS011;17930;48.592;8.868;2024-03-02T14:41:19;1.73;;;1.60;;
6828;SDS011;17930;48.592;8.868;2024-03-02T14:43:49;2.17;;;1.33;;
6828;SDS011;17930;48.592;8.868;2024-03-02T14:46:17;1.87;;;1.20;;
6828;SDS011;17930;48.592;8.868;2024-03-02T14:48:44;2.13;;;1.33;;
6828;SDS011;17930;48.592;8.868;2024-03-02T14:51:12;4.30;;;1.37;;
6828;SDS011;17930;48.592;8.868;2024-03-02T14:53:41;2.33;;;1.50;;
6828;SDS011;17930;48.592;8.868;2024-03-02T14:56:08;1.90;;;1.70;;